Time;durP1;ratioP1;P1;durP2;ratioP2;P2;SDS_P1;SDS_P2;PMS_P1;PMS_P2;Temp;Humidity;BMP_temperature;BMP_pressure;BME280_temperature;BME280_humidity;BME280_pressure;Samples;Min_cycle;Max_cycle;Signal;HPM_P1;HPM_P2
2022/10/26 00:02:02;;;;;;;;;4.50;3.50;;;;;17.53;72.48;100712.69;5059100;28;45235;-43
2022/10/26 00:04:27;;;;;;;;;5.50;4.00;;;;;17.49;72.73;100724.88;5059165;28;45254;-43
2022/10/26 00:06:52;;;;;;;;;4.75;3.00;;;;;17.45;72.39;100732.47;5057839;28;45425;-43
2022/10/26 00:09:18;;;;;;;;;4.75;4.00;;;;;17.48;72.09;100716.97;5058564;28;45312;-43
2022/10/26 00:11:43;;;;;;;;;5.00;4.75;;;;;17.48;72.19;100725.03;5058835;28;45403;-42
2022/10/26 00:14:08;;;;;;;;;5.00;5.00;;;;;17.46;72.39;100727.94;5058987;28;45325;-42
2022/10/26 00:16:34;;;;;;;;;6.25;5.00;;;;;17.44;72.59;100711.13;5058991;28;45401;-42
2022/10/26 00:18:59;;;;;;;;;3.50;3.50;;;;;17.44;72.48;100719.22;5057472;28;46031;-43
2022/10/26 00:21:24;;;;;;;;;4.25;3.50;;;;;17.41;72.26;100714.22;5058486;28;45501;-44
2022/10/26 00:23:50;;;;;;;;;3.00;3.00;;;;;17.42;71.92;100722.09;5058779;28;45542;-42
2022/10/26 00:26:15;;;;;;;;;3.50;3.00;;;;;17.43;72.25;100714.84;5059038;28;45438;-42
2022/10/26 00:28:41;;;;;;;;;3.50;3.00;;;;;17.46;72.12;100718.00;5058345;28;46211;-43
2022/10/26 00:31:12;;;;;;;;;5.00;4.00;;;;;17.40;71.75;100716.09;5058477;28;45250;-42
2022/10/26 00:33:38;;;;;;;;;2.50;2.50;;;;;17.42;72.08;100716.72;5058717;28;45450;-43
2022/10/26 00:36:03;;;;;;;;;4.00;4.00;;;;;17.40;72.13;100715.22;5058728;28;45413;-41
2022/10/26 00:38:29;;;;;;;;;5.25;5.00;;;;;17.40;71.99;100723.31;5058328;28;45670;-43
2022/10/26 00:40:54;;;;;;;;;2.50;2.50;;;;;17.45;72.01;100724.41;5058325;28;45198;-42
2022/10/26 00:43:25;;;;;;;;;5.00;3.00;;;;;17.48;71.93;100719.66;5058292;28;45238;-42
2022/10/26 00:45:54;;;;;;;;;5.00;3.75;;;;;17.33;72.04;100703.59;5057317;28;45386;-43
2022/10/26 00:48:27;;;;;;;;;5.25;4.75;;;;;17.41;72.04;100714.22;5058156;28;45392;-43
2022/10/26 00:50:55;;;;;;;;;3.00;3.00;;;;;17.47;71.87;100724.22;5058094;28;45512;-43
2022/10/26 00:53:21;;;;;;;;;5.00;4.00;;;;;17.46;72.35;100720.69;5058260;28;45426;-44
2022/10/26 00:55:49;;;;;;;;;4.50;3.50;;;;;17.47;71.98;100721.53;5058468;28;45475;-42
2022/10/26 00:58:16;;;;;;;;;3.50;3.50;;;;;17.47;72.08;100713.44;5057821;28;46861;-42
2022/10/26 01:00:42;;;;;;;;;6.00;4.25;;;;;17.46;71.99;100715.31;5057983;28;45305;-43
2022/10/26 01:03:09;;;;;;;;;5.25;3.50;;;;;17.45;71.73;100728.97;5058112;28;45422;-42
2022/10/26 01:05:39;;;;;;;;;4.00;3.00;;;;;17.43;72.00;100741.75;5058299;28;45353;-42
2022/10/26 01:08:05;;;;;;;;;3.00;3.00;;;;;17.43;71.90;100745.28;5057611;28;47330;-42
2022/10/26 01:10:31;;;;;;;;;5.00;3.50;;;;;17.45;72.11;100761.22;5057713;28;45343;-43
2022/10/26 01:12:58;;;;;;;;;4.25;3.00;;;;;17.45;71.96;100761.22;5058010;28;45432;-44
2022/10/26 01:15:35;;;;;;;;;5.00;5.00;;;;;17.44;72.24;100775.69;5057997;28;45207;-42
2022/10/26 01:18:18;;;;;;;;;6.00;5.50;;;;;17.39;72.60;100759.28;5057677;28;47397;-43
2022/10/26 01:21:19;;;;;;;;;5.00;4.00;;;;;17.42;72.43;100767.00;5057621;28;45532;-42
2022/10/26 01:23:54;;;;;;;;;6.00;4.50;;;;;17.44;72.33;100773.84;5057559;28;45380;-44
2022/10/26 01:26:44;;;;;;;;;5.25;3.75;;;;;17.38;72.48;100779.16;5057777;28;45589;-44
2022/10/26 01:29:29;;;;;;;;;6.75;3.75;;;;;17.40;72.46;100775.25;5057282;28;46251;-43
2022/10/26 01:32:00;;;;;;;;;6.50;5.00;;;;;17.37;72.95;100778.31;5056946;28;45308;-43
2022/10/26 01:34:59;;;;;;;;;5.00;4.50;;;;;17.34;72.74;100778.69;5057655;28;45336;-42
2022/10/26 01:37:32;;;;;;;;;4.25;4.25;;;;;17.29;73.12;100770.38;4995474;28;45572;-43
2022/10/26 01:40:05;;;;;;;;;3.00;3.00;;;;;17.29;73.25;100774.91;4995282;28;45440;-43
2022/10/26 01:42:31;;;;;;;;;5.00;3.75;;;;;17.25;73.25;100773.63;4995250;28;45947;-44
2022/10/26 01:45:05;;;;;;;;;5.50;5.00;;;;;17.17;73.38;100772.72;4995076;28;45392;-43
2022/10/26 01:47:33;;;;;;;;;3.75;3.25;;;;;17.11;73.57;100757.34;4995370;28;45360;-44
2022/10/26 01:50:01;;;;;;;;;4.75;3.75;;;;;17.23;73.52;100783.72;4995017;28;46266;-42
2022/10/26 01:52:27;;;;;;;;;5.00;5.00;;;;;17.22;73.30;100785.56;4995012;28;45373;-43
2022/10/26 01:55:03;;;;;;;;;3.00;3.00;;;;;17.16;73.40;100768.38;4995316;28;45385;-42
2022/10/26 01:57:34;;;;;;;;;6.00;4.50;;;;;17.23;73.50;100781.03;4995396;28;45553;-42
2022/10/26 02:00:09;;;;;;;;;4.50;4.50;;;;;17.21;73.47;100782.06;4994996;28;45377;-43
2022/10/26 02:02:35;;;;;;;;;7.50;5.00;;;;;17.23;73.56;100784.56;4995052;28;45511;-42
2022/10/26 02:05:08;;;;;;;;;9.00;4.25;;;;;17.23;73.56;100781.03;4995164;28;45451;-44
2022/10/26 02:07:49;;;;;;;;;3.00;3.00;;;;;17.24;73.47;100788.09;4995164;28;45401;-44
2022/10/26 02:10:30;;;;;;;;;5.50;4.00;;;;;17.22;73.44;100804.41;4994763;28;46630;-44
2022/10/26 02:13:29;;;;;;;;;4.25;3.75;;;;;17.24;73.12;100796.16;4994934;28;45561;-43
2022/10/26 02:16:06;;;;;;;;;4.00;4.00;;;;;17.26;73.25;100803.00;5057112;28;45334;-43
2022/10/26 02:19:10;;;;;;;;;5.75;3.25;;;;;17.27;73.09;100791.22;5057113;28;45369;-43
2022/10/26 02:21:40;;;;;;;;;6.25;4.75;;;;;17.27;73.30;100791.22;5055909;28;45394;-43
2022/10/26 02:24:09;;;;;;;;;4.00;4.00;;;;;17.27;73.05;100795.75;5056183;28;45351;-43
2022/10/26 02:26:36;;;;;;;;;7.50;4.00;;;;;17.31;73.43;100799.75;5056856;28;45290;-42
2022/10/26 02:29:06;;;;;;;;;6.50;3.75;;;;;17.32;73.31;100796.88;5056856;28;45443;-42
2022/10/26 02:31:34;;;;;;;;;5.50;4.00;;;;;17.33;72.99;100797.72;5056454;28;46369;-42
2022/10/26 02:34:05;;;;;;;;;6.50;4.00;;;;;17.37;72.82;100794.44;5056656;28;45428;-41
2022/10/26 02:36:34;;;;;;;;;6.00;3.50;;;;;17.40;72.45;100796.78;5056879;28;45314;-42
2022/10/26 02:39:03;;;;;;;;;4.00;4.00;;;;;17.43;72.70;100808.97;5056962;28;45393;-42
2022/10/26 02:41:31;;;;;;;;;4.00;4.00;;;;;17.45;72.74;100809.63;5056737;28;46158;-44
2022/10/26 02:44:08;;;;;;;;;4.25;4.00;;;;;17.50;72.53;100809.06;5059057;28;45431;-43
2022/10/26 02:46:33;;;;;;;;;4.75;3.50;;;;;17.52;72.39;100818.59;5060550;28;45325;-41
2022/10/26 02:48:59;;;;;;;;;4.00;4.00;;;;;17.56;72.21;100817.19;5060421;28;45440;-42
2022/10/26 02:52:01;;;;;;;;;5.00;4.00;;;;;17.60;71.96;100817.66;5060069;28;45284;-42
2022/10/26 02:54:58;;;;;;;;;2.00;2.00;;;;;17.61;71.98;100816.63;4997763;28;45530;-42
2022/10/26 02:57:39;;;;;;;;;5.25;3.00;;;;;17.64;72.05;100811.69;4997377;28;45516;-41
2022/10/26 03:00:06;;;;;;;;;2.75;2.75;;;;;17.68;71.77;100809.47;4998090;28;45537;-41
2022/10/26 03:02:32;;;;;;;;;9.25;3.00;;;;;17.63;71.71;100787.69;4997754;28;45881;-41
2022/10/26 03:05:12;;;;;;;;;3.00;3.00;;;;;17.70;71.45;100807.44;4997662;28;46050;-41
2022/10/26 03:07:37;;;;;;;;;5.50;4.25;;;;;17.72;71.64;100805.34;4997961;28;45668;-44
2022/10/26 03:10:03;;;;;;;;;7.00;3.75;;;;;17.75;71.30;100812.25;4998108;28;45399;-42
2022/10/26 03:12:28;;;;;;;;;4.75;4.00;;;;;17.77;71.04;100804.81;4997721;28;47040;-43
2022/10/26 03:14:53;;;;;;;;;5.00;5.00;;;;;17.81;71.31;100806.09;4998220;28;45453;-43
2022/10/26 03:17:19;;;;;;;;;2.75;2.75;;;;;17.82;71.27;100807.75;4998210;28;45473;-42
2022/10/26 03:19:44;;;;;;;;;5.00;3.00;;;;;17.84;71.19;100808.41;4998173;28;45293;-49
2022/10/26 03:22:09;;;;;;;;;3.50;3.50;;;;;17.87;71.11;100813.41;4997450;28;45598;-42
2022/10/26 03:24:35;;;;;;;;;6.00;4.25;;;;;17.89;70.79;100820.25;4997472;28;45437;-42
2022/10/26 03:27:00;;;;;;;;;3.00;3.00;;;;;17.89;70.80;100816.72;4997489;28;45365;-43
2022/10/26 03:29:25;;;;;;;;;4.00;4.00;;;;;17.91;70.81;100825.47;4997685;28;45559;-42
2022/10/26 03:31:53;;;;;;;;;2.50;2.50;;;;;17.92;70.84;100841.41;5044216;28;45340;-42
2022/10/26 03:34:19;;;;;;;;;4.50;3.00;;;;;17.93;70.76;100844.94;5059327;28;45390;-42
2022/10/26 03:36:45;;;;;;;;;4.25;4.25;;;;;17.93;70.87;100842.25;5059472;28;45303;-42
2022/10/26 03:39:10;;;;;;;;;4.75;2.00;;;;;17.93;70.69;100842.25;5059438;28;45431;-42
2022/10/26 03:41:35;;;;;;;;;2.00;2.00;;;;;17.85;70.70;100835.13;5059251;28;47189;-42
2022/10/26 03:44:01;;;;;;;;;3.00;3.00;;;;;17.90;70.88;100837.22;5059317;28;45378;-43
2022/10/26 03:46:26;;;;;;;;;3.25;3.25;;;;;17.90;70.98;100829.97;5059555;28;45751;-43
2022/10/26 03:48:51;;;;;;;;;4.00;2.75;;;;;17.89;70.90;100838.25;5059636;28;45442;-42
2022/10/26 03:51:17;;;;;;;;;6.00;4.75;;;;;17.77;70.85;100837.09;5058639;28;45673;-43
2022/10/26 03:53:42;;;;;;;;;5.50;3.25;;;;;17.85;70.89;100855.81;5058935;28;45241;-43
2022/10/26 03:56:07;;;;;;;;;3.50;3.50;;;;;17.81;71.07;100867.97;5059259;28;45352;-43
2022/10/26 03:58:33;;;;;;;;;3.00;3.00;;;;;17.83;70.99;100876.72;5059391;28;45280;-42
2022/10/26 04:00:58;;;;;;;;;4.00;3.75;;;;;17.84;70.81;100887.28;5058330;28;46161;-43
2022/10/26 04:03:23;;;;;;;;;4.00;3.00;;;;;17.82;70.87;100889.31;5058727;28;45428;-42
2022/10/26 04:05:49;;;;;;;;;3.00;3.00;;;;;17.76;70.83;100883.88;5059109;28;45352;-43
2022/10/26 04:08:14;;;;;;;;;2.75;2.75;;;;;17.76;70.85;100889.25;5059202;28;45485;-43
2022/10/26 04:10:39;;;;;;;;;4.75;2.75;;;;;17.75;70.96;100887.59;5058780;28;45299;-44
2022/10/26 04:13:05;;;;;;;;;3.25;3.25;;;;;17.73;71.05;100884.22;5059091;28;45400;-43
2022/10/26 04:15:30;;;;;;;;;3.00;3.00;;;;;17.72;71.22;100888.75;5058900;28;45303;-43
2022/10/26 04:18:00;;;;;;;;;4.25;2.75;;;;;17.70;71.29;100891.66;5059163;28;45179;-43
2022/10/26 04:20:26;;;;;;;;;5.00;3.00;;;;;17.69;71.16;100892.66;5058649;28;46272;-42
2022/10/26 04:23:03;;;;;;;;;4.25;2.75;;;;;17.68;71.17;100900.94;5058353;28;45458;-45
2022/10/26 04:25:30;;;;;;;;;8.50;4.50;;;;;17.66;71.15;100919.97;5058630;28;45395;-44
2022/10/26 04:27:55;;;;;;;;;4.25;2.75;;;;;17.65;71.29;100912.06;5058867;28;45417;-43
2022/10/26 04:30:21;;;;;;;;;5.00;3.25;;;;;17.63;70.98;100920.34;5058330;28;46067;-44
2022/10/26 04:32:46;;;;;;;;;3.75;2.25;;;;;17.59;71.53;100927.09;5058649;28;45399;-43
2022/10/26 04:35:12;;;;;;;;;3.75;3.00;;;;;17.56;71.52;100923.97;5058585;28;45490;-42
2022/10/26 04:37:37;;;;;;;;;4.50;3.00;;;;;17.53;71.59;100929.69;5058701;28;45404;-44
2022/10/26 04:40:03;;;;;;;;;7.00;4.50;;;;;17.53;71.90;100941.31;5058247;28;46523;-44
2022/10/26 04:42:32;;;;;;;;;4.75;3.00;;;;;17.53;71.70;100938.63;5058251;28;45410;-44
2022/10/26 04:44:58;;;;;;;;;3.50;3.25;;;;;17.52;71.66;100947.69;5058225;28;45288;-43
2022/10/26 04:47:24;;;;;;;;;5.50;5.00;;;;;17.52;71.89;100945.00;5058461;28;45470;-44
2022/10/26 04:49:49;;;;;;;;;3.50;3.50;;;;;17.52;71.89;100945.00;5058052;28;45404;-44
2022/10/26 04:52:14;;;;;;;;;8.25;4.00;;;;;17.50;71.69;100955.13;5058073;28;45367;-44
2022/10/26 04:54:40;;;;;;;;;4.00;4.00;;;;;17.46;71.92;100957.34;5058335;28;45360;-45
2022/10/26 04:57:05;;;;;;;;;3.00;3.00;;;;;17.42;71.78;100966.00;5058380;28;45442;-42
2022/10/26 04:59:30;;;;;;;;;3.00;3.00;;;;;17.44;71.88;100974.69;5057920;28;45253;-40
2022/10/26 05:01:56;;;;;;;;;5.00;3.50;;;;;17.43;71.75;100981.09;5058250;28;45487;-42
2022/10/26 05:04:21;;;;;;;;;4.50;4.00;;;;;17.41;72.03;100986.69;5058280;28;45342;-43
2022/10/26 05:06:46;;;;;;;;;5.00;5.00;;;;;17.42;71.88;100992.88;5056165;28;45497;-43
2022/10/26 05:09:12;;;;;;;;;5.50;4.00;;;;;17.40;72.19;100986.84;5057746;28;46056;-41
2022/10/26 05:11:37;;;;;;;;;3.50;3.25;;;;;17.38;71.96;100999.66;5058032;28;45362;-44
2022/10/26 05:14:02;;;;;;;;;3.00;3.00;;;;;17.39;72.09;101006.69;5058060;28;45339;-44
2022/10/26 05:16:28;;;;;;;;;5.75;4.00;;;;;17.25;71.83;100977.94;5058251;28;45465;-43
2022/10/26 05:18:53;;;;;;;;;4.75;3.00;;;;;17.37;71.82;100998.81;5057803;28;47127;-42
2022/10/26 05:21:18;;;;;;;;;3.00;3.00;;;;;17.36;71.82;101007.91;5057875;28;45462;-42
2022/10/26 05:23:52;;;;;;;;;2.50;2.50;;;;;17.33;71.89;100999.38;5057835;28;45457;-43
2022/10/26 05:26:18;;;;;;;;;3.75;3.00;;;;;17.28;71.87;100999.09;5057922;28;45520;-42
2022/10/26 05:28:43;;;;;;;;;3.00;3.00;;;;;17.32;71.94;101009.31;5057678;28;45389;-41
2022/10/26 05:31:09;;;;;;;;;4.00;2.00;;;;;17.29;72.01;101012.34;5057463;28;45379;-42
2022/10/26 05:33:34;;;;;;;;;6.00;3.25;;;;;17.28;72.13;101018.75;5057489;28;45315;-41
2022/10/26 05:35:59;;;;;;;;;3.00;1.50;;;;;17.29;72.20;101020.41;5057627;28;45330;-43
2022/10/26 05:38:25;;;;;;;;;4.00;4.00;;;;;17.30;72.06;101026.63;5057203;28;46055;-42
2022/10/26 05:40:52;;;;;;;;;5.50;3.75;;;;;17.26;71.88;101025.31;5057283;28;45353;-43
2022/10/26 05:43:19;;;;;;;;;3.25;2.25;;;;;17.27;72.17;101035.03;5057174;28;45547;-42
2022/10/26 05:45:45;;;;;;;;;6.75;4.00;;;;;17.26;72.28;101044.13;5057364;28;45478;-44
2022/10/26 05:48:10;;;;;;;;;4.50;3.00;;;;;17.24;72.25;101049.72;5057235;28;45239;-42
2022/10/26 05:50:36;;;;;;;;;4.00;3.00;;;;;17.26;72.16;101047.66;5057112;28;45449;-43
2022/10/26 05:53:01;;;;;;;;;5.75;4.00;;;;;17.13;72.18;101034.84;5057393;28;45425;-42
2022/10/26 05:55:27;;;;;;;;;3.75;3.75;;;;;17.25;72.42;101058.59;5055784;28;45231;-43
2022/10/26 05:57:53;;;;;;;;;5.25;5.00;;;;;17.23;72.23;101063.31;5056970;28;45987;-42
2022/10/26 06:00:21;;;;;;;;;4.50;4.50;;;;;17.24;72.34;101057.78;5057000;28;45313;-42
2022/10/26 06:03:04;;;;;;;;;2.25;2.25;;;;;17.23;72.22;101063.31;5057156;28;45461;-42
2022/10/26 06:05:52;;;;;;;;;5.50;4.00;;;;;17.21;72.34;101064.34;5057208;28;45350;-42
2022/10/26 06:08:18;;;;;;;;;8.00;5.00;;;;;17.13;72.43;101050.13;5056667;28;46849;-42
2022/10/26 06:10:44;;;;;;;;;7.50;3.25;;;;;17.15;72.46;101059.72;5056454;28;45300;-43
2022/10/26 06:13:09;;;;;;;;;12.00;6.67;;;;;17.10;72.91;101058.56;5056890;28;45188;-44
2022/10/26 06:15:48;;;;;;;;;4.25;4.25;;;;;17.07;73.07;101050.88;5057119;28;45295;-42
2022/10/26 06:18:34;;;;;;;;;3.75;3.75;;;;;17.01;73.04;101052.44;5055740;28;46751;-43
2022/10/26 06:21:43;;;;;;;;;4.25;4.25;;;;;16.98;73.21;101058.19;5056972;28;45334;-43
2022/10/26 06:24:18;;;;;;;;;6.25;4.50;;;;;16.95;73.49;101048.63;5056765;28;45416;-42
2022/10/26 06:26:58;;;;;;;;;6.00;3.00;;;;;16.89;73.45;101060.06;5057040;28;45263;-41
2022/10/26 06:30:00;;;;;;;;;10.25;6.25;;;;;16.86;73.44;101068.53;5056566;28;46182;-41
2022/10/26 06:32:26;;;;;;;;;8.67;5.00;;;;;16.83;74.15;101059.97;5053762;28;45299;-41
2022/10/26 06:35:01;;;;;;;;;7.33;4.67;;;;;16.54;74.03;101040.00;5056777;28;45457;-44
2022/10/26 06:37:29;;;;;;;;;4.33;4.33;;;;;16.69;74.11;101083.88;5056916;28;45215;-44
2022/10/26 06:39:56;;;;;;;;;4.00;4.00;;;;;16.71;74.13;101097.13;5056095;28;45365;-43
2022/10/26 06:42:21;;;;;;;;;5.25;4.50;;;;;16.70;74.35;101098.97;5056791;28;45260;-42
2022/10/26 06:44:47;;;;;;;;;9.33;6.00;;;;;16.69;74.37;101099.16;5056585;28;45319;-42
2022/10/26 06:47:36;;;;;;;;;9.33;7.00;;;;;16.67;74.74;101109.25;5056841;28;45381;-44
2022/10/26 06:50:37;;;;;;;;;5.67;5.67;;;;;16.63;74.39;101119.50;5047884;28;45568;-47
2022/10/26 06:53:16;;;;;;;;;6.67;3.67;;;;;16.59;74.70;101120.03;5056435;28;45552;-48
2022/10/26 06:55:44;;;;;;;;;11.33;5.67;;;;;16.53;75.00;101126.13;5056456;28;45293;-45
2022/10/26 06:58:21;;;;;;;;;7.75;5.00;;;;;16.50;74.77;101130.00;5056658;28;45406;-44
2022/10/26 07:00:49;;;;;;;;;7.33;4.67;;;;;16.50;75.25;101135.34;5056346;28;46098;-44
2022/10/26 07:03:15;;;;;;;;;6.67;5.00;;;;;16.50;75.16;101140.72;5056184;28;45663;-45
2022/10/26 07:05:42;;;;;;;;;7.33;5.67;;;;;16.50;75.47;101150.63;5056838;28;45367;-46
2022/10/26 07:08:08;;;;;;;;;5.67;4.67;;;;;16.48;74.80;101140.09;5056730;28;45598;-44
2022/10/26 07:10:37;;;;;;;;;6.00;4.33;;;;;16.49;75.25;101154.34;5056178;28;47111;-44
2022/10/26 07:13:07;;;;;;;;;7.75;4.25;;;;;16.54;74.96;101149.28;5056456;28;45280;-45
2022/10/26 07:15:34;;;;;;;;;5.67;4.67;;;;;16.56;74.81;101155.28;5056196;28;45746;-46
2022/10/26 07:17:59;;;;;;;;;4.00;4.00;;;;;16.55;74.81;101167.88;5056490;28;45311;-44
2022/10/26 07:20:25;;;;;;;;;3.67;3.67;;;;;16.54;74.74;101152.78;5056221;28;46306;-48
2022/10/26 07:22:54;;;;;;;;;10.00;5.00;;;;;16.53;75.05;101172.63;5056043;28;45417;-45
2022/10/26 07:25:20;;;;;;;;;7.67;5.67;;;;;16.55;74.97;101178.63;5056219;28;45391;-43
2022/10/26 07:27:45;;;;;;;;;8.00;5.33;;;;;16.49;74.93;101168.59;5056313;28;45251;-44
2022/10/26 07:30:11;;;;;;;;;5.33;5.33;;;;;16.59;74.71;101187.19;5058835;28;46045;-43
2022/10/26 07:32:36;;;;;;;;;5.67;5.00;;;;;16.58;75.07;101186.34;5059401;28;45309;-43
2022/10/26 07:35:02;;;;;;;;;6.00;5.33;;;;;16.60;74.82;101200.47;5059380;28;45408;-46
2022/10/26 07:37:27;;;;;;;;;5.67;5.67;;;;;16.62;74.71;101205.63;5059690;28;45309;-46
2022/10/26 07:39:53;;;;;;;;;8.00;5.33;;;;;16.61;74.75;101212.03;5059216;28;46215;-46
2022/10/26 07:42:18;;;;;;;;;11.00;11.00;;;;;16.65;74.84;101216.03;5059378;28;45372;-45
2022/10/26 07:44:44;;;;;;;;;6.00;4.00;;;;;16.67;74.70;101222.91;5059209;28;45409;-44
2022/10/26 07:47:09;;;;;;;;;6.00;4.67;;;;;16.66;74.51;101223.09;5059643;28;45401;-44
2022/10/26 07:49:34;;;;;;;;;7.67;4.67;;;;;16.70;74.49;101222.56;5058995;28;45994;-43
2022/10/26 07:52:00;;;;;;;;;4.67;4.00;;;;;16.75;74.55;101229.28;5059090;28;45250;-46
2022/10/26 07:54:25;;;;;;;;;5.33;4.00;;;;;16.79;74.51;101228.75;5059200;28;45370;-43
2022/10/26 07:56:51;;;;;;;;;5.00;5.00;;;;;16.79;74.41;101234.13;5059553;28;45468;-45
2022/10/26 07:59:17;;;;;;;;;7.67;5.67;;;;;16.84;74.35;101234.44;5058814;28;45831;-45
2022/10/26 08:01:43;;;;;;;;;8.33;5.33;;;;;16.82;74.14;101228.41;5058938;28;45348;-44
2022/10/26 08:04:08;;;;;;;;;6.67;6.67;;;;;16.88;74.17;101238.44;5059095;28;45355;-48
2022/10/26 08:06:33;;;;;;;;;8.67;7.00;;;;;16.89;74.28;101237.44;5059272;28;45252;-45
2022/10/26 08:08:59;;;;;;;;;8.00;4.00;;;;;16.93;74.17;101251.34;5058810;28;45260;-45
2022/10/26 08:11:24;;;;;;;;;6.67;4.67;;;;;16.95;74.39;101241.28;5058671;28;45225;-44
2022/10/26 08:13:54;;;;;;;;;8.00;6.00;;;;;16.97;74.29;101244.63;5058947;28;45387;-45
2022/10/26 08:16:20;;;;;;;;;9.00;6.67;;;;;17.05;73.77;101249.94;5059068;28;45409;-47
2022/10/26 08:18:50;;;;;;;;;4.67;4.67;;;;;17.04;73.77;101242.06;5058564;28;46208;-46
2022/10/26 08:21:16;;;;;;;;;6.00;5.00;;;;;17.13;73.73;101252.59;5058697;28;45346;-45
2022/10/26 08:23:42;;;;;;;;;10.33;7.00;;;;;17.20;73.80;101268.88;5058639;28;45237;-47
2022/10/26 08:26:11;;;;;;;;;8.00;6.00;;;;;17.24;73.54;101263.97;5058889;28;45248;-49
2022/10/26 08:28:37;;;;;;;;;10.00;5.00;;;;;17.27;73.34;101261.75;5058522;28;47087;-46
2022/10/26 08:31:02;;;;;;;;;8.25;6.75;;;;;17.29;73.20;101261.59;5058315;28;45366;-44
2022/10/26 08:33:28;;;;;;;;;7.75;5.25;;;;;17.45;73.07;101270.38;5058474;28;45531;-44
2022/10/26 08:35:55;;;;;;;;;5.75;5.00;;;;;17.57;72.82;101268.13;5058818;28;45193;-45
2022/10/26 08:38:20;;;;;;;;;6.00;5.00;;;;;17.65;72.76;101283.31;5058460;28;46206;-44
2022/10/26 08:40:46;;;;;;;;;7.00;4.50;;;;;17.69;72.20;101274.72;5057186;28;45360;-46
2022/10/26 08:43:21;;;;;;;;;7.75;5.25;;;;;17.68;72.25;101267.66;5058616;28;45295;-47
2022/10/26 08:45:59;;;;;;;;;5.00;5.00;;;;;17.84;72.03;101269.44;5058663;28;45513;-46
2022/10/26 08:48:31;;;;;;;;;9.00;4.00;;;;;18.04;71.60;101274.31;5057742;28;46172;-47
2022/10/26 08:51:06;;;;;;;;;10.50;5.50;;;;;18.10;71.35;101269.00;5057115;28;45363;-47
2022/10/26 08:53:55;;;;;;;;;7.25;5.00;;;;;18.24;71.03;101263.81;5058044;28;45299;-44
2022/10/26 08:56:25;;;;;;;;;5.25;3.25;;;;;18.45;70.48;101283.63;5057887;28;45315;-47
2022/10/26 08:58:56;;;;;;;;;5.50;5.00;;;;;18.64;69.96;101297.56;5057888;28;46307;-44
2022/10/26 09:01:22;;;;;;;;;9.25;5.00;;;;;18.81;69.02;101298.25;5057748;28;45374;-47
2022/10/26 09:03:47;;;;;;;;;9.00;6.00;;;;;19.05;68.65;101295.25;5057844;28;45423;-45
2022/10/26 09:06:56;;;;;;;;;9.25;4.50;;;;;19.75;66.85;101295.59;5058089;28;45463;-44
2022/10/26 09:09:39;;;;;;;;;5.75;5.75;;;;;20.77;65.08;101295.94;4975618;28;45453;-45
2022/10/26 09:12:20;;;;;;;;;6.20;4.20;;;;;21.55;62.07;101299.16;4975665;28;45345;-47
2022/10/26 09:14:48;;;;;;;;;6.40;4.60;;;;;22.15;59.66;101304.66;4959844;28;45548;-45
2022/10/26 09:17:35;;;;;;;;;4.75;4.00;;;;;22.63;58.14;101301.66;4976364;28;45537;-44
2022/10/26 09:20:09;;;;;;;;;6.50;4.50;;;;;23.30;57.07;101307.66;4975708;28;46175;-44
2022/10/26 09:22:56;;;;;;;;;5.40;5.40;;;;;23.70;56.05;101307.47;4975591;28;45267;-45
2022/10/26 09:25:26;;;;;;;;;8.40;4.60;;;;;24.05;54.14;101296.94;4975647;28;45478;-45
2022/10/26 09:27:56;;;;;;;;;4.00;4.00;;;;;24.47;54.43;101311.63;4976056;28;45459;-44
2022/10/26 09:30:22;;;;;;;;;5.60;4.00;;;;;24.82;53.53;101309.16;4974548;28;46179;-45
2022/10/26 09:32:51;;;;;;;;;6.20;4.60;;;;;24.96;51.80;101304.38;4975379;28;45942;-47
2022/10/26 09:35:27;;;;;;;;;0.00;0.00;;;;;25.16;52.47;101301.44;4975942;28;45470;-47
2022/10/26 09:38:09;;;;;;;;;6.20;3.20;;;;;25.77;50.47;101307.72;4975791;28;45446;-44
2022/10/26 09:40:58;;;;;;;;;7.00;3.00;;;;;26.15;48.65;101307.28;4975196;28;45429;-43
2022/10/26 09:43:32;;;;;;;;;4.00;4.00;;;;;26.18;49.18;101315.00;4975327;28;45322;-45
2022/10/26 09:45:57;;;;;;;;;2.40;1.80;;;;;26.39;47.70;101321.75;5018366;28;45504;-46
2022/10/26 09:48:41;;;;;;;;;3.00;2.00;;;;;26.44;47.66;101311.00;5057410;28;45324;-47
2022/10/26 09:51:07;;;;;;;;;1.80;1.80;;;;;26.56;46.81;101339.09;5056468;28;46957;-46
2022/10/26 09:53:33;;;;;;;;;3.00;2.25;;;;;26.55;46.79;101325.72;5056744;28;45514;-45
2022/10/26 09:56:11;;;;;;;;;2.00;1.25;;;;;26.56;49.12;101336.38;5056909;28;45272;-44
2022/10/26 09:58:48;;;;;;;;;2.80;1.00;;;;;26.36;46.68;101333.97;5055955;28;45575;-42
2022/10/26 10:01:26;;;;;;;;;4.40;2.80;;;;;26.18;47.50;101338.72;5057012;28;45461;-42
2022/10/26 10:04:48;;;;;;;;;3.60;2.00;;;;;26.13;47.58;101344.88;5056992;28;45257;-45
2022/10/26 10:07:06;;;;;;;;;2.00;1.60;;;;;26.16;47.15;101352.56;5054755;28;45461;-43
2022/10/26 10:09:31;;;;;;;;;1.00;1.00;;;;;26.17;46.62;101354.25;5057272;28;45581;-47
2022/10/26 10:12:02;;;;;;;;;5.00;2.00;;;;;26.26;46.23;101355.56;5056547;28;46044;-49
2022/10/26 10:14:31;;;;;;;;;1.40;1.40;;;;;26.47;46.73;101359.63;5056750;28;45336;-47
2022/10/26 10:17:00;;;;;;;;;2.80;2.80;;;;;26.68;45.20;101360.09;5056953;28;45461;-43
2022/10/26 10:19:33;;;;;;;;;1.20;1.20;;;;;26.88;45.15;101363.25;5056951;28;45433;-44
2022/10/26 10:22:15;;;;;;;;;3.80;2.00;;;;;27.20;45.07;101371.06;5056490;28;46208;-46
2022/10/26 10:24:58;;;;;;;;;6.60;2.80;;;;;27.46;45.45;101372.41;5056679;28;45469;-45
2022/10/26 10:27:24;;;;;;;;;2.00;2.00;;;;;27.72;43.37;101373.69;5056768;28;45322;-45
2022/10/26 10:29:54;;;;;;;;;6.80;3.80;;;;;27.96;44.69;101378.00;5056609;28;45338;-45
2022/10/26 10:32:30;;;;;;;;;6.80;4.00;;;;;28.13;43.24;101371.72;5056337;28;46136;-43
2022/10/26 10:34:58;;;;;;;;;2.80;2.20;;;;;28.04;42.68;101380.34;5056613;28;45763;-42
2022/10/26 10:37:29;;;;;;;;;2.40;2.00;;;;;27.98;43.67;101384.06;5056594;28;45249;-49
2022/10/26 10:40:05;;;;;;;;;5.20;4.80;;;;;27.95;43.32;101383.72;5056853;28;45241;-45
2022/10/26 10:42:33;;;;;;;;;2.40;2.00;;;;;28.18;42.42;101388.22;5056382;28;45991;-44
2022/10/26 10:45:00;;;;;;;;;1.80;1.80;;;;;28.13;42.40;101386.22;5056323;28;45443;-45
2022/10/26 10:47:32;;;;;;;;;2.20;1.40;;;;;27.83;42.87;101387.34;5056600;28;45365;-44
2022/10/26 10:50:02;;;;;;;;;4.80;2.20;;;;;28.01;42.75;101388.19;5056336;28;45569;-43
2022/10/26 10:52:31;;;;;;;;;4.00;1.40;;;;;28.29;41.52;101390.03;5056205;28;45396;-46
2022/10/26 10:55:08;;;;;;;;;1.80;1.00;;;;;28.33;42.59;101402.97;5056369;28;45266;-46
2022/10/26 10:57:49;;;;;;;;;1.00;1.00;;;;;28.38;42.62;101395.97;5056365;28;45377;-47
2022/10/26 11:00:17;;;;;;;;;1.60;0.80;;;;;28.64;41.44;101392.53;5056217;28;45360;-44
2022/10/26 11:03:05;;;;;;;;;1.00;1.00;;;;;29.04;41.80;101395.03;5056120;28;47174;-45
2022/10/26 11:05:47;;;;;;;;;1.60;0.80;;;;;29.32;39.88;101399.47;5059780;28;45385;-44
2022/10/26 11:08:24;;;;;;;;;1.80;1.80;;;;;29.32;40.08;101396.75;5058349;28;45262;-46
2022/10/26 11:11:15;;;;;;;;;2.80;1.40;;;;;29.44;41.09;101402.09;5059587;28;45464;-44
2022/10/26 11:14:00;;;;;;;;;1.80;1.80;;;;;29.55;39.94;101390.16;4977592;28;46063;-43
2022/10/26 11:16:35;;;;;;;;;2.00;1.00;;;;;29.70;39.98;101399.66;4977619;28;45955;-43
2022/10/26 11:19:15;;;;;;;;;3.20;1.60;;;;;29.67;39.86;101400.19;4977883;28;45399;-47
2022/10/26 11:21:45;;;;;;;;;2.60;1.60;;;;;29.82;38.96;101403.91;4977983;28;45441;-42
2022/10/26 11:24:30;;;;;;;;;1.00;1.00;;;;;29.78;39.37;101410.16;4977638;28;46214;-47
2022/10/26 11:27:02;;;;;;;;;0.60;0.00;;;;;29.51;38.95;101405.47;4977682;28;45282;-43
2022/10/26 11:29:37;;;;;;;;;2.20;1.20;;;;;29.22;39.72;101404.84;4977721;28;45533;-44
2022/10/26 11:32:19;;;;;;;;;0.00;0.00;;;;;29.07;40.22;101404.63;4977878;28;45488;-43
2022/10/26 11:34:50;;;;;;;;;1.40;1.00;;;;;28.95;40.43;101402.00;4977545;28;46100;-43
2022/10/26 11:37:47;;;;;;;;;2.60;1.40;;;;;28.97;40.60;101405.34;4977722;28;45489;-45
2022/10/26 11:40:25;;;;;;;;;2.80;1.20;;;;;28.94;40.54;101405.00;4964316;28;45571;-46
2022/10/26 11:43:15;;;;;;;;;1.00;1.00;;;;;29.03;41.07;101400.75;4977768;28;45366;-43